Time;durP1;ratioP1;P1;durP2;ratioP2;P2;SDS_P1;SDS_P2;PMS_P1;PMS_P2;Temp;Humidity;BMP_temperature;BMP_pressure;BME280_temperature;BME280_humidity;BME280_pressure;Samples;Min_cycle;Max_cycle;Signal;HPM_P1;HPM_P2
2022/08/01 00:00:11;;;;;;;4.70;3.50;;;19.30;99.90;;;;;;5033513;28;20271;-85
2022/08/01 00:02:55;;;;;;;4.80;3.95;;;19.30;99.90;;;;;;5033277;28;20190;-83
2022/08/01 00:05:43;;;;;;;4.25;3.92;;;19.30;99.90;;;;;;5030141;28;20200;-83
2022/08/01 00:08:27;;;;;;;7.25;4.88;;;19.30;99.90;;;;;;5029173;28;20211;-84
2022/08/01 00:11:12;;;;;;;4.22;3.80;;;19.30;99.90;;;;;;5030981;28;20192;-84
2022/08/01 00:13:56;;;;;;;4.30;3.90;;;19.30;99.90;;;;;;5030624;28;20230;-84
2022/08/01 00:16:40;;;;;;;5.60;3.90;;;19.30;99.90;;;;;;5031677;28;20222;-84
2022/08/01 00:19:24;;;;;;;4.90;3.70;;;19.30;99.90;;;;;;5033852;28;20218;-83
2022/08/01 00:22:08;;;;;;;3.70;3.40;;;19.30;99.90;;;;;;5032264;28;20179;-81
2022/08/01 00:24:52;;;;;;;4.38;3.17;;;19.30;99.90;;;;;;5033542;28;20186;-81
2022/08/01 00:27:36;;;;;;;4.63;3.23;;;19.30;99.90;;;;;;5030593;28;20272;-81
2022/08/01 00:30:20;;;;;;;4.60;2.92;;;19.20;99.90;;;;;;5033557;28;20187;-81
2022/08/01 00:33:04;;;;;;;3.30;3.00;;;19.30;99.90;;;;;;5025972;28;20204;-83
2022/08/01 00:35:49;;;;;;;3.10;2.85;;;19.20;99.90;;;;;;5031565;28;20203;-84
2022/08/01 00:38:33;;;;;;;3.85;3.30;;;19.20;99.90;;;;;;5031660;28;20219;-83
2022/08/01 00:41:17;;;;;;;3.38;2.90;;;19.10;99.90;;;;;;5030979;28;20571;-83
2022/08/01 00:44:04;;;;;;;8.17;3.50;;;19.10;99.90;;;;;;5031960;28;20207;-82
2022/08/01 00:46:48;;;;;;;3.92;3.58;;;19.10;99.90;;;;;;5026901;28;20206;-80
2022/08/01 00:49:33;;;;;;;4.07;3.38;;;19.10;99.90;;;;;;5031291;28;20214;-81
2022/08/01 00:52:17;;;;;;;4.57;3.45;;;19.10;99.90;;;;;;5032342;28;20203;-80
2022/08/01 00:55:02;;;;;;;4.03;3.45;;;19.10;99.90;;;;;;5025988;28;20184;-81
2022/08/01 00:57:48;;;;;;;5.20;3.85;;;19.10;99.90;;;;;;5027622;28;20250;-81
2022/08/01 01:00:35;;;;;;;3.97;3.67;;;19.00;99.90;;;;;;5031616;28;20183;-81
2022/08/01 01:03:19;;;;;;;4.82;4.40;;;19.10;99.90;;;;;;5035063;28;20207;-81
2022/08/01 01:06:25;;;;;;;4.30;3.90;;;19.00;99.90;;;;;;5030863;28;20187;-80
2022/08/01 01:09:23;;;;;;;4.53;4.10;;;19.00;99.90;;;;;;5025726;28;20211;-80
2022/08/01 01:12:29;;;;;;;9.27;4.45;;;19.00;99.90;;;;;;5033989;28;20311;-80
2022/08/01 01:15:29;;;;;;;4.55;4.00;;;19.00;99.90;;;;;;5027731;28;20271;-79
2022/08/01 01:18:44;;;;;;;10.40;4.82;;;19.00;99.90;;;;;;5026190;28;20238;-80
2022/08/01 01:21:32;;;;;;;6.35;5.00;;;19.00;99.90;;;;;;5038943;28;20180;-79
2022/08/01 01:24:37;;;;;;;6.53;5.25;;;19.00;99.90;;;;;;5026882;28;20260;-80
2022/08/01 01:27:27;;;;;;;5.97;5.38;;;19.00;99.90;;;;;;5027709;28;20336;-80
2022/08/01 01:30:12;;;;;;;5.55;5.05;;;19.00;99.90;;;;;;5043807;28;20187;-80
2022/08/01 01:33:00;;;;;;;5.75;5.15;;;19.00;99.90;;;;;;5025032;28;20199;-79
2022/08/01 01:35:55;;;;;;;8.40;4.97;;;18.90;99.90;;;;;;5026065;28;20203;-80
2022/08/01 01:38:44;;;;;;;5.13;4.63;;;18.90;99.90;;;;;;5019929;28;20224;-80
2022/08/01 01:41:30;;;;;;;6.28;5.00;;;18.90;99.90;;;;;;5027873;28;20280;-80
2022/08/01 01:44:15;;;;;;;5.70;4.40;;;18.90;99.90;;;;;;5019952;28;20642;-80
2022/08/01 01:47:00;;;;;;;5.15;4.65;;;18.90;99.90;;;;;;5025595;28;20203;-80
2022/08/01 01:49:48;;;;;;;6.30;4.60;;;18.90;99.90;;;;;;5022996;28;20219;-80
2022/08/01 01:52:33;;;;;;;4.90;4.18;;;18.90;99.90;;;;;;5028340;28;20668;-80
2022/08/01 01:55:21;;;;;;;4.70;4.15;;;18.80;99.90;;;;;;5028842;28;20550;-80
2022/08/01 01:58:07;;;;;;;4.60;4.20;;;18.80;99.90;;;;;;5028307;28;20764;-79
2022/08/01 02:00:52;;;;;;;5.18;3.83;;;18.80;99.90;;;;;;5024838;28;20194;-80
2022/08/01 02:03:38;;;;;;;4.90;4.00;;;18.80;99.90;;;;;;5026227;28;20200;-79
2022/08/01 02:06:25;;;;;;;4.45;3.95;;;18.80;99.90;;;;;;5025712;28;20310;-80
2022/08/01 02:09:10;;;;;;;5.20;3.70;;;18.80;99.90;;;;;;5021713;28;20265;-79
2022/08/01 02:11:55;;;;;;;5.50;3.47;;;18.80;99.90;;;;;;5024198;28;20243;-79
2022/08/01 02:14:40;;;;;;;5.97;3.75;;;18.80;99.90;;;;;;5030064;28;20187;-79
2022/08/01 02:17:25;;;;;;;3.72;3.42;;;18.80;99.90;;;;;;5024511;28;20821;-79
2022/08/01 02:20:10;;;;;;;5.28;3.60;;;18.70;99.90;;;;;;5029664;28;20199;-79
2022/08/01 02:23:06;;;;;;;6.27;4.03;;;18.70;99.90;;;;;;5027823;28;20182;-79
2022/08/01 02:25:53;;;;;;;4.60;4.20;;;18.70;99.90;;;;;;5024646;28;20187;-79
2022/08/01 02:29:04;;;;;;;6.75;4.10;;;18.60;99.90;;;;;;5025547;28;20241;-79
2022/08/01 02:31:54;;;;;;;6.10;4.53;;;18.60;99.90;;;;;;5023133;28;20237;-79
2022/08/01 02:34:40;;;;;;;5.27;4.30;;;18.60;99.90;;;;;;5019673;28;20204;-79
2022/08/01 02:37:28;;;;;;;5.10;4.60;;;18.50;99.90;;;;;;5026348;28;20210;-79
2022/08/01 02:40:14;;;;;;;4.68;4.18;;;18.50;99.90;;;;;;5025363;28;20222;-79
2022/08/01 02:43:01;;;;;;;5.77;5.17;;;18.60;99.90;;;;;;5023189;28;20227;-79
2022/08/01 02:45:51;;;;;;;7.60;5.57;;;18.60;99.90;;;;;;5024072;28;20192;-80
2022/08/01 02:48:38;;;;;;;7.95;5.38;;;18.50;99.90;;;;;;5020034;28;20247;-79
2022/08/01 02:51:24;;;;;;;5.23;4.70;;;18.50;99.90;;;;;;5025386;28;20194;-79
2022/08/01 02:54:11;;;;;;;7.60;5.00;;;18.50;99.90;;;;;;5029947;28;20187;-79
2022/08/01 02:56:57;;;;;;;5.40;4.82;;;18.60;99.90;;;;;;5028657;28;20214;-79
2022/08/01 02:59:42;;;;;;;5.40;4.90;;;18.50;99.90;;;;;;5024427;28;20215;-80
2022/08/01 03:02:28;;;;;;;7.85;5.28;;;18.50;99.90;;;;;;5034209;28;20194;-79
2022/08/01 03:05:14;;;;;;;5.72;4.75;;;18.50;99.90;;;;;;5042893;28;22028;-79
2022/08/01 03:08:00;;;;;;;5.43;4.93;;;18.50;99.90;;;;;;5034115;28;20198;-80
2022/08/01 03:10:46;;;;;;;5.68;4.78;;;18.50;99.90;;;;;;5031841;28;20190;-80
2022/08/01 03:13:33;;;;;;;6.90;4.40;;;18.60;99.90;;;;;;5032553;28;20202;-80
2022/08/01 03:16:18;;;;;;;5.43;4.68;;;18.50;99.90;;;;;;5030083;28;20191;-80
2022/08/01 03:19:04;;;;;;;6.33;4.77;;;18.50;99.90;;;;;;5031437;28;20207;-80
2022/08/01 03:21:50;;;;;;;6.37;4.70;;;18.50;99.90;;;;;;5038332;28;20196;-80
2022/08/01 03:24:37;;;;;;;5.47;4.72;;;18.50;99.90;;;;;;5034248;28;20179;-79
2022/08/01 03:27:24;;;;;;;5.82;4.82;;;18.50;99.90;;;;;;5027937;28;20301;-79
2022/08/01 03:30:10;;;;;;;5.32;4.78;;;18.50;99.90;;;;;;5036141;28;20237;-79
2022/08/01 03:32:55;;;;;;;6.27;4.47;;;18.50;99.90;;;;;;5028684;28;20184;-80
2022/08/01 03:35:47;;;;;;;5.30;4.80;;;18.50;99.90;;;;;;5036792;28;20210;-79
2022/08/01 03:38:37;;;;;;;5.75;4.55;;;18.50;99.90;;;;;;5026082;28;20300;-80
2022/08/01 03:41:26;;;;;;;5.97;5.35;;;18.50;99.90;;;;;;5036853;28;20204;-79
2022/08/01 03:44:15;;;;;;;6.10;4.73;;;18.50;99.90;;;;;;5037104;28;20530;-79
2022/08/01 03:47:03;;;;;;;7.25;4.68;;;18.50;99.90;;;;;;5025685;28;20192;-79
2022/08/01 03:49:50;;;;;;;6.20;4.97;;;18.50;99.90;;;;;;5037381;28;20365;-80
2022/08/01 03:52:37;;;;;;;5.03;4.40;;;18.50;99.90;;;;;;5030828;28;20330;-79
2022/08/01 03:55:23;;;;;;;6.95;4.57;;;18.40;99.90;;;;;;5031211;28;20310;-79
2022/08/01 03:58:08;;;;;;;5.30;4.80;;;18.40;99.90;;;;;;5030568;28;20230;-79
2022/08/01 04:00:53;;;;;;;6.70;3.85;;;18.20;99.90;;;;;;5040764;28;20604;-79
2022/08/01 04:03:38;;;;;;;5.35;3.95;;;18.50;99.90;;;;;;5028024;28;20251;-79
2022/08/01 04:06:22;;;;;;;5.07;4.20;;;18.40;99.90;;;;;;5027712;28;20176;-79
2022/08/01 04:09:08;;;;;;;4.55;4.00;;;18.40;99.90;;;;;;5028059;28;20223;-79
2022/08/01 04:11:52;;;;;;;5.60;3.70;;;18.40;99.90;;;;;;5026561;28;20234;-79
2022/08/01 04:14:37;;;;;;;4.83;3.90;;;18.40;99.90;;;;;;5027464;28;20230;-79
2022/08/01 04:17:21;;;;;;;4.10;3.77;;;18.40;99.90;;;;;;5027916;28;20206;-79
2022/08/01 04:20:05;;;;;;;9.27;4.00;;;18.40;99.90;;;;;;5024885;28;20689;-79
2022/08/01 04:22:49;;;;;;;4.82;4.32;;;18.40;99.90;;;;;;5025350;28;20175;-79
2022/08/01 04:25:36;;;;;;;4.20;3.80;;;18.40;99.90;;;;;;5026565;28;20179;-79
2022/08/01 04:28:23;;;;;;;4.70;3.33;;;18.40;99.90;;;;;;5028672;28;20261;-79
2022/08/01 04:31:09;;;;;;;4.30;3.57;;;18.30;99.90;;;;;;5025520;28;20211;-79
2022/08/01 04:33:55;;;;;;;4.77;3.50;;;18.40;99.90;;;;;;5025408;28;20232;-79
2022/08/01 04:36:44;;;;;;;4.17;3.77;;;18.40;99.90;;;;;;5028801;28;20231;-79
2022/08/01 04:39:31;;;;;;;3.70;3.40;;;18.30;99.90;;;;;;5028773;28;20273;-79
2022/08/01 04:42:16;;;;;;;4.07;3.60;;;18.30;99.90;;;;;;5028586;28;20649;-79
2022/08/01 04:45:00;;;;;;;3.97;3.57;;;18.30;99.90;;;;;;5026463;28;20269;-79
2022/08/01 04:47:47;;;;;;;6.40;4.03;;;18.30;99.90;;;;;;5024233;28;20211;-79
2022/08/01 04:50:32;;;;;;;4.20;3.80;;;18.30;99.90;;;;;;5019037;28;20187;-79
2022/08/01 04:53:21;;;;;;;4.10;3.77;;;18.30;99.90;;;;;;5027687;28;20211;-79
2022/08/01 04:56:06;;;;;;;4.80;3.53;;;18.30;99.90;;;;;;5027478;28;20187;-78
2022/08/01 04:59:39;;;;;;;3.90;3.00;;;18.30;99.90;;;;;;5024899;28;20215;-79
2022/08/01 05:01:55;;;;;;;5.63;3.43;;;18.30;99.90;;;;;;5024888;28;20183;-79
2022/08/01 05:04:39;;;;;;;3.30;2.97;;;18.30;99.90;;;;;;5030518;28;20183;-79
2022/08/01 05:07:24;;;;;;;3.60;2.73;;;18.20;99.90;;;;;;5026117;28;20203;-79
2022/08/01 05:10:09;;;;;;;1.90;1.80;;;18.30;99.90;;;;;;5027725;28;20577;-78
2022/08/01 05:12:53;;;;;;;2.53;1.80;;;18.30;99.90;;;;;;5027732;28;20231;-82
2022/08/01 05:15:37;;;;;;;2.50;1.70;;;18.20;99.90;;;;;;5025995;28;20238;-82
2022/08/01 05:18:21;;;;;;;1.57;1.33;;;18.10;99.90;;;;;;5027325;28;20710;-79
2022/08/01 05:21:06;;;;;;;1.53;1.43;;;18.00;99.90;;;;;;5024503;28;20194;-78
2022/08/01 05:23:50;;;;;;;1.63;1.30;;;18.00;99.90;;;;;;5032662;28;20310;-80
2022/08/01 05:26:35;;;;;;;2.67;1.30;;;17.90;99.90;;;;;;5028921;28;20227;-79
2022/08/01 05:29:19;;;;;;;2.70;1.33;;;17.90;99.90;;;;;;5017609;28;20227;-80
2022/08/01 05:32:03;;;;;;;5.13;1.60;;;17.80;99.90;;;;;;5020171;28;20192;-84
2022/08/01 05:34:48;;;;;;;4.13;2.13;;;17.80;99.90;;;;;;5030174;28;20271;-81
2022/08/01 05:37:32;;;;;;;2.67;1.90;;;17.80;99.90;;;;;;5028251;28;20203;-82
2022/08/01 05:40:17;;;;;;;2.67;1.70;;;17.80;99.90;;;;;;5029243;28;20210;-83
2022/08/01 05:43:01;;;;;;;4.47;1.80;;;17.80;99.90;;;;;;5027392;28;20211;-81
2022/08/01 05:45:45;;;;;;;3.27;1.53;;;17.80;99.90;;;;;;5032537;28;20214;-81
2022/08/01 05:48:30;;;;;;;7.17;2.30;;;17.80;99.90;;;;;;5021160;28;20219;-80
2022/08/01 05:51:14;;;;;;;3.97;2.00;;;17.80;99.90;;;;;;5032287;28;20264;-82
2022/08/01 05:53:58;;;;;;;4.37;2.17;;;17.80;99.90;;;;;;5026673;28;20187;-81
2022/08/01 05:56:42;;;;;;;2.10;1.70;;;17.90;99.90;;;;;;5021935;28;20197;-79
2022/08/01 05:59:26;;;;;;;6.23;2.07;;;17.90;99.90;;;;;;5028683;28;20227;-79
2022/08/01 06:02:11;;;;;;;4.80;1.80;;;17.90;99.90;;;;;;5028321;28;20195;-85
2022/08/01 06:04:55;;;;;;;6.00;2.17;;;17.90;99.90;;;;;;5018824;28;20196;-81
2022/08/01 06:07:39;;;;;;;5.93;1.70;;;18.00;99.90;;;;;;5029178;28;20274;-85
2022/08/01 06:10:25;;;;;;;2.93;1.63;;;18.00;99.90;;;;;;5029590;28;20552;-83
2022/08/01 06:13:10;;;;;;;4.93;1.70;;;18.10;99.90;;;;;;5021568;28;20316;-79
2022/08/01 06:15:57;;;;;;;4.17;1.60;;;18.10;99.90;;;;;;5026971;28;20263;-81
2022/08/01 06:18:42;;;;;;;3.13;1.60;;;18.10;99.90;;;;;;5027568;28;20210;-80
2022/08/01 06:21:26;;;;;;;5.17;1.77;;;18.10;99.90;;;;;;5028303;28;20210;-80
2022/08/01 06:24:10;;;;;;;6.03;2.10;;;18.20;99.90;;;;;;5030783;28;20187;-80
2022/08/01 06:26:54;;;;;;;6.57;2.50;;;18.10;99.90;;;;;;5022493;28;20745;-81
2022/08/01 06:29:38;;;;;;;4.87;2.20;;;18.10;99.90;;;;;;5030362;28;20241;-80
2022/08/01 06:32:24;;;;;;;4.43;1.63;;;18.00;99.90;;;;;;5025671;28;20661;-80
2022/08/01 06:35:09;;;;;;;3.63;2.30;;;18.00;99.90;;;;;;5025959;28;20191;-80
2022/08/01 06:37:53;;;;;;;6.80;2.47;;;18.10;99.90;;;;;;5023425;28;20251;-80
2022/08/01 06:40:38;;;;;;;6.13;2.53;;;17.80;99.90;;;;;;5027109;28;20330;-81
2022/08/01 06:43:22;;;;;;;3.90;2.37;;;18.00;99.90;;;;;;5026402;28;20191;-80
2022/08/01 06:46:06;;;;;;;5.93;2.07;;;18.10;99.90;;;;;;5024469;28;20234;-80
2022/08/01 06:48:50;;;;;;;4.73;2.00;;;18.10;99.90;;;;;;5027383;28;20219;-80
2022/08/01 06:51:34;;;;;;;5.53;2.10;;;18.20;99.90;;;;;;5021986;28;20746;-80
2022/08/01 06:54:18;;;;;;;9.20;3.00;;;18.20;99.90;;;;;;5024559;28;20192;-80
2022/08/01 06:57:06;;;;;;;7.90;2.67;;;18.20;99.90;;;;;;5023952;28;20199;-80
2022/08/01 06:59:50;;;;;;;4.53;2.67;;;18.20;99.90;;;;;;5014952;28;20745;-80
2022/08/01 07:02:36;;;;;;;5.77;2.93;;;18.20;99.90;;;;;;5026566;28;20682;-80
2022/08/01 07:05:21;;;;;;;4.30;2.60;;;18.20;99.90;;;;;;5026030;28;20222;-80
2022/08/01 07:08:05;;;;;;;6.63;2.60;;;18.20;99.90;;;;;;5026620;28;20269;-80
2022/08/01 07:10:50;;;;;;;6.20;2.60;;;18.20;99.90;;;;;;5026644;28;20214;-80
2022/08/01 07:13:34;;;;;;;6.97;2.83;;;18.20;99.90;;;;;;5026832;28;20215;-80
2022/08/01 07:16:18;;;;;;;4.47;2.70;;;18.20;99.90;;;;;;5027734;28;20235;-80
2022/08/01 07:19:02;;;;;;;7.87;3.30;;;18.20;99.90;;;;;;5030174;28;20210;-80
2022/08/01 07:21:46;;;;;;;6.90;2.90;;;18.10;99.90;;;;;;5026470;28;20195;-80
2022/08/01 07:24:31;;;;;;;6.53;3.30;;;18.10;99.90;;;;;;5031630;28;20253;-80
2022/08/01 07:27:15;;;;;;;9.80;3.30;;;18.10;99.90;;;;;;5023992;28;20207;-81
2022/08/01 07:30:00;;;;;;;7.03;2.77;;;18.10;99.90;;;;;;5030330;28;20268;-80
2022/08/01 07:32:44;;;;;;;3.80;2.50;;;18.00;99.90;;;;;;5029067;28;20188;-80
2022/08/01 07:35:28;;;;;;;5.73;2.90;;;18.00;99.90;;;;;;5030161;28;20311;-80
2022/08/01 07:38:13;;;;;;;6.80;3.10;;;18.00;99.90;;;;;;5029683;28;20207;-80
2022/08/01 07:40:58;;;;;;;4.90;2.53;;;18.00;99.90;;;;;;5028283;28;20254;-81
2022/08/01 07:43:42;;;;;;;9.23;2.67;;;17.90;99.90;;;;;;5031320;28;20239;-80
2022/08/01 07:46:26;;;;;;;10.27;2.80;;;17.90;99.90;;;;;;5029066;28;20203;-81
2022/08/01 07:49:10;;;;;;;8.37;3.20;;;17.90;99.90;;;;;;5034364;28;20222;-81
2022/08/01 07:51:54;;;;;;;9.50;3.60;;;17.80;99.90;;;;;;5031730;28;20206;-80
2022/08/01 07:54:38;;;;;;;7.97;4.03;;;17.80;99.90;;;;;;5031818;28;20195;-81
2022/08/01 07:57:23;;;;;;;7.07;4.20;;;17.80;99.90;;;;;;5033730;28;20270;-81
2022/08/01 08:00:09;;;;;;;9.80;4.47;;;17.70;99.90;;;;;;5029020;28;20232;-81
2022/08/01 08:02:53;;;;;;;8.47;3.87;;;17.70;99.90;;;;;;5033110;28;20203;-80
2022/08/01 08:05:38;;;;;;;8.80;4.73;;;17.70;99.90;;;;;;5030546;28;20199;-81
2022/08/01 08:08:22;;;;;;;7.80;5.77;;;17.70;99.90;;;;;;5028537;28;20269;-81
2022/08/01 08:11:07;;;;;;;8.97;4.00;;;17.70;99.90;;;;;;5025464;28;20199;-79
2022/08/01 08:13:51;;;;;;;10.30;3.50;;;17.70;99.90;;;;;;5025707;28;20630;-79
2022/08/01 08:16:35;;;;;;;8.03;2.87;;;17.70;99.90;;;;;;5025139;28;20191;-78
2022/08/01 08:19:19;;;;;;;9.20;3.00;;;17.70;99.90;;;;;;5027756;28;20560;-79
2022/08/01 08:22:04;;;;;;;10.90;3.57;;;17.70;99.90;;;;;;5027276;28;20238;-79
2022/08/01 08:24:48;;;;;;;9.43;4.50;;;17.70;99.90;;;;;;5025658;28;20716;-78
2022/08/01 08:27:32;;;;;;;9.90;4.00;;;17.80;99.90;;;;;;5026511;28;20221;-78
2022/08/01 08:30:17;;;;;;;7.67;4.07;;;17.80;99.90;;;;;;5027288;28;20279;-78
2022/08/01 08:33:01;;;;;;;17.40;4.70;;;17.80;99.90;;;;;;5028400;28;20230;-79
2022/08/01 08:35:45;;;;;;;14.33;4.83;;;17.80;99.90;;;;;;5024351;28;20249;-79
2022/08/01 08:38:29;;;;;;;12.00;4.43;;;17.80;99.90;;;;;;5018432;28;20220;-78
2022/08/01 08:41:14;;;;;;;11.33;5.33;;;18.00;99.90;;;;;;5020617;28;20239;-78
2022/08/01 08:44:02;;;;;;;12.47;5.00;;;18.00;99.90;;;;;;5022615;28;20276;-79
2022/08/01 08:46:50;;;;;;;11.53;4.30;;;18.00;99.90;;;;;;5022267;28;20234;-79
2022/08/01 08:49:36;;;;;;;14.73;4.27;;;18.00;99.90;;;;;;5020343;28;20222;-79
2022/08/01 08:52:21;;;;;;;12.53;4.40;;;18.10;99.90;;;;;;5021586;28;20283;-79
2022/08/01 08:55:07;;;;;;;17.13;4.60;;;18.10;99.90;;;;;;5024095;28;20600;-79
2022/08/01 08:57:52;;;;;;;14.07;3.57;;;18.30;99.90;;;;;;5018738;28;20235;-78
2022/08/01 09:00:37;;;;;;;9.67;3.67;;;18.30;99.90;;;;;;5024118;28;20354;-79
2022/08/01 09:03:22;;;;;;;8.97;3.70;;;18.40;99.90;;;;;;5021674;28;20234;-78
2022/08/01 09:06:06;;;;;;;12.37;3.20;;;18.50;99.90;;;;;;5024597;28;20191;-79
2022/08/01 09:08:50;;;;;;;8.67;2.73;;;18.50;99.90;;;;;;5020616;28;20223;-78
2022/08/01 09:11:35;;;;;;;13.03;2.60;;;18.60;99.90;;;;;;5021120;28;20625;-79
2022/08/01 09:14:37;;;;;;;10.37;2.57;;;18.70;99.90;;;;;;5018596;28;20207;-79
2022/08/01 09:17:23;;;;;;;12.63;3.47;;;18.70;99.90;;;;;;5025411;28;20218;-79
2022/08/01 09:20:08;;;;;;;9.33;3.40;;;18.70;99.90;;;;;;5024217;28;20303;-79
2022/08/01 09:22:52;;;;;;;11.43;2.53;;;18.80;99.90;;;;;;5024022;28;20239;-79
2022/08/01 09:25:52;;;;;;;9.73;2.50;;;18.80;99.90;;;;;;5027248;28;20222;-79
2022/08/01 09:28:37;;;;;;;6.73;2.20;;;18.80;99.90;;;;;;5023689;28;20223;-78
2022/08/01 09:31:21;;;;;;;12.15;2.63;;;18.90;99.90;;;;;;5026076;28;20242;-78
2022/08/01 09:34:05;;;;;;;13.23;2.77;;;19.00;99.90;;;;;;5017965;28;20203;-79
2022/08/01 09:36:55;;;;;;;9.43;2.47;;;19.00;99.90;;;;;;5022633;28;20203;-79
2022/08/01 09:39:42;;;;;;;10.23;2.47;;;19.10;99.90;;;;;;5018764;28;20294;-79
2022/08/01 09:42:28;;;;;;;10.70;2.38;;;19.10;99.90;;;;;;5026641;28;20301;-79
2022/08/01 09:45:32;;;;;;;7.65;2.15;;;19.20;99.90;;;;;;5022456;28;20199;-79
2022/08/01 09:48:17;;;;;;;11.37;2.53;;;19.30;99.90;;;;;;5029727;28;20218;-80
2022/08/01 09:51:01;;;;;;;9.00;2.65;;;19.40;99.90;;;;;;5029907;28;20222;-79
2022/08/01 09:53:48;;;;;;;10.45;2.45;;;19.50;99.90;;;;;;5024976;28;20671;-80
2022/08/01 09:56:45;;;;;;;10.07;2.20;;;19.60;99.90;;;;;;5030820;28;21519;-78
2022/08/01 09:59:40;;;;;;;9.35;2.15;;;19.60;99.90;;;;;;5028069;28;20258;-81
2022/08/01 10:02:33;;;;;;;8.38;2.00;;;19.60;99.90;;;;;;5029146;28;20234;-81
2022/08/01 10:05:29;;;;;;;7.57;2.10;;;19.80;99.90;;;;;;5030494;28;20569;-80
2022/08/01 10:08:13;;;;;;;7.97;2.03;;;19.70;99.90;;;;;;5026386;28;20748;-81
2022/08/01 10:11:10;;;;;;;6.38;1.88;;;19.80;99.90;;;;;;5025093;28;20275;-81
2022/08/01 10:13:58;;;;;;;8.35;1.92;;;19.80;99.90;;;;;;5029345;28;20196;-81
2022/08/01 10:16:42;;;;;;;11.73;2.08;;;20.00;99.90;;;;;;5026617;28;20226;-81
2022/08/01 10:19:29;;;;;;;6.40;1.90;;;20.00;99.90;;;;;;5022767;28;20365;-81
2022/08/01 10:22:17;;;;;;;7.03;1.90;;;20.00;99.90;;;;;;5025644;28;20529;-81
2022/08/01 10:25:05;;;;;;;7.68;1.80;;;20.10;99.90;;;;;;5030838;28;20187;-81
2022/08/01 10:27:51;;;;;;;7.45;1.70;;;20.20;99.90;;;;;;5028981;28;20246;-81
2022/08/01 10:30:37;;;;;;;9.43;1.77;;;20.40;99.90;;;;;;5031633;28;20254;-81
2022/08/01 10:33:22;;;;;;;6.68;1.63;;;20.40;99.90;;;;;;5025041;28;20186;-81
2022/08/01 10:36:08;;;;;;;6.90;2.15;;;20.40;99.90;;;;;;5028735;28;20299;-81
2022/08/01 10:38:55;;;;;;;8.50;2.15;;;20.30;99.90;;;;;;5028465;28;20764;-81
2022/08/01 10:41:40;;;;;;;5.22;1.98;;;20.50;99.90;;;;;;5029089;28;20211;-81
2022/08/01 10:44:29;;;;;;;6.25;2.28;;;20.40;99.90;;;;;;5029778;28;20263;-81
2022/08/01 10:47:17;;;;;;;6.13;2.17;;;20.50;99.90;;;;;;5025217;28;20210;-81
2022/08/01 10:50:16;;;;;;;6.20;2.40;;;20.50;99.90;;;;;;5021627;28;20215;-81
2022/08/01 10:53:16;;;;;;;9.20;4.13;;;20.50;99.90;;;;;;5029924;28;20198;-82
2022/08/01 10:56:03;;;;;;;11.80;4.28;;;20.50;99.90;;;;;;5029296;28;20277;-81
2022/08/01 10:58:49;;;;;;;10.70;4.03;;;20.50;99.90;;;;;;5031235;28;20669;-81
2022/08/01 11:01:33;;;;;;;11.07;3.80;;;20.40;99.90;;;;;;5028166;28;20245;-81
2022/08/01 11:04:18;;;;;;;8.40;3.13;;;20.30;99.90;;;;;;5031458;28;20199;-81
2022/08/01 11:07:06;;;;;;;8.13;3.28;;;20.40;99.90;;;;;;5030068;28;20247;-81
2022/08/01 11:10:32;;;;;;;6.43;2.83;;;20.40;99.90;;;;;;5034421;28;20235;-81
2022/08/01 11:13:55;;;;;;;6.53;2.58;;;20.30;99.90;;;;;;5008107;28;20203;-81
2022/08/01 11:16:40;;;;;;;10.18;2.63;;;20.50;99.90;;;;;;5031160;28;20287;-81
2022/08/01 11:20:03;;;;;;;9.77;2.55;;;20.60;99.90;;;;;;5034072;28;20230;-81
2022/08/01 11:23:06;;;;;;;7.78;2.40;;;20.70;99.90;;;;;;5026672;28;20199;-81
2022/08/01 11:25:52;;;;;;;8.90;2.72;;;20.70;99.90;;;;;;5032975;28;20199;-81
2022/08/01 11:28:36;;;;;;;9.52;2.90;;;20.70;99.90;;;;;;5035228;28;20281;-81
2022/08/01 11:31:20;;;;;;;10.85;3.92;;;20.70;99.90;;;;;;5032421;28;20187;-81
2022/08/01 11:34:05;;;;;;;9.70;3.50;;;20.70;99.90;;;;;;5034479;28;20195;-81
2022/08/01 11:37:09;;;;;;;10.32;3.03;;;20.80;99.90;;;;;;5032479;28;20269;-81
2022/08/01 11:40:20;;;;;;;7.40;3.10;;;20.80;99.90;;;;;;5039770;28;20226;-81
2022/08/01 11:43:16;;;;;;;9.85;3.50;;;20.90;99.90;;;;;;5032166;28;20214;-81
2022/08/01 11:46:01;;;;;;;6.10;2.17;;;20.90;99.90;;;;;;5034844;28;20298;-81
2022/08/01 11:49:24;;;;;;;5.45;2.55;;;20.90;99.90;;;;;;5039701;28;20593;-81
2022/08/01 11:52:15;;;;;;;11.63;3.00;;;20.90;99.90;;;;;;5034855;28;20215;-81
2022/08/01 11:55:06;;;;;;;11.88;2.53;;;20.90;99.90;;;;;;5035349;28;20266;-81
2022/08/01 11:57:59;;;;;;;12.32;1.90;;;20.90;99.90;;;;;;5030043;28;20195;-81
2022/08/01 12:00:54;;;;;;;15.27;2.25;;;20.90;99.90;;;;;;5033225;28;20305;-81
2022/08/01 12:03:38;;;;;;;11.18;1.95;;;21.00;99.90;;;;;;5037466;28;20287;-81
2022/08/01 12:06:29;;;;;;;12.65;2.22;;;21.00;99.90;;;;;;5029922;28;20279;-81
2022/08/01 12:09:21;;;;;;;9.48;2.40;;;21.00;99.90;;;;;;5027359;28;20211;-84
2022/08/01 12:12:06;;;;;;;9.38;2.13;;;21.00;99.90;;;;;;5026801;28;20207;-77
2022/08/01 12:14:59;;;;;;;8.93;1.88;;;21.10;99.90;;;;;;5030930;28;20238;-77
2022/08/01 12:17:44;;;;;;;11.00;2.10;;;21.00;99.90;;;;;;5027769;28;20203;-77
2022/08/01 12:20:32;;;;;;;8.27;2.00;;;21.00;99.90;;;;;;5032297;28;20662;-77
2022/08/01 12:23:16;;;;;;;11.45;2.58;;;21.00;99.90;;;;;;5029420;28;20195;-77
2022/08/01 12:26:01;;;;;;;9.82;1.60;;;21.00;99.90;;;;;;5025709;28;20207;-78
2022/08/01 12:28:45;;;;;;;10.13;1.48;;;21.00;99.90;;;;;;5030621;28;20234;-77
2022/08/01 12:31:36;;;;;;;12.18;1.70;;;20.90;99.90;;;;;;5023542;28;20198;-77
2022/08/01 12:34:27;;;;;;;6.93;1.95;;;21.00;99.90;;;;;;5030163;28;20187;-77
2022/08/01 12:37:12;;;;;;;7.38;1.75;;;21.00;99.90;;;;;;5024170;28;20287;-77
2022/08/01 12:39:57;;;;;;;4.53;1.70;;;21.00;99.90;;;;;;5026017;28;20235;-77
2022/08/01 12:42:44;;;;;;;4.90;1.58;;;21.10;99.90;;;;;;5028978;28;20314;-77
2022/08/01 12:45:39;;;;;;;8.63;1.75;;;21.20;99.90;;;;;;5024729;28;20674;-77
2022/08/01 12:48:25;;;;;;;6.03;1.77;;;21.10;99.90;;;;;;5026416;28;20222;-80
2022/08/01 12:51:11;;;;;;;5.05;1.80;;;21.10;99.90;;;;;;5032687;28;20184;-81
2022/08/01 12:53:59;;;;;;;7.47;1.77;;;21.10;99.90;;;;;;5027138;28;20200;-79
2022/08/01 12:56:43;;;;;;;8.70;1.65;;;21.10;99.90;;;;;;5025494;28;20196;-78
2022/08/01 12:59:28;;;;;;;9.80;2.10;;;21.10;99.90;;;;;;5025032;28;20227;-76
2022/08/01 13:02:13;;;;;;;4.30;1.50;;;21.10;99.90;;;;;;5025641;28;20280;-76
2022/08/01 13:04:57;;;;;;;6.03;1.58;;;21.10;99.90;;;;;;5026746;28;20241;-76
2022/08/01 13:07:49;;;;;;;9.68;1.70;;;21.10;99.90;;;;;;5025954;28;20211;-76
2022/08/01 13:10:34;;;;;;;7.72;1.58;;;21.10;99.90;;;;;;5024217;28;20210;-76
2022/08/01 13:13:21;;;;;;;7.82;1.73;;;21.10;99.90;;;;;;5024996;28;20658;-76
2022/08/01 13:16:07;;;;;;;8.60;2.00;;;21.10;99.90;;;;;;5027371;28;20194;-76
2022/08/01 13:18:59;;;;;;;12.60;1.85;;;21.10;99.90;;;;;;5027139;28;20223;-75
2022/08/01 13:21:54;;;;;;;6.32;1.42;;;21.20;99.90;;;;;;5025445;28;20203;-76
2022/08/01 13:24:38;;;;;;;5.82;1.48;;;21.10;99.90;;;;;;5027149;28;20196;-76
2022/08/01 13:27:24;;;;;;;7.00;1.75;;;21.20;99.90;;;;;;5025584;28;20219;-76
2022/08/01 13:30:17;;;;;;;7.40;1.52;;;21.10;99.90;;;;;;5023823;28;20273;-76
2022/08/01 13:33:01;;;;;;;7.03;1.58;;;21.20;99.90;;;;;;5019099;28;20194;-76
2022/08/01 13:35:47;;;;;;;6.07;1.60;;;21.30;99.90;;;;;;5023021;28;20783;-76
2022/08/01 13:41:34;;;;;;;6.57;1.77;;;21.30;99.90;;;;;;5019533;28;20230;-76
2022/08/01 13:44:18;;;;;;;6.88;1.85;;;21.30;99.90;;;;;;5022544;28;20250;-76
2022/08/01 13:47:03;;;;;;;6.95;1.60;;;21.30;99.90;;;;;;5022262;28;20219;-76
2022/08/01 13:49:48;;;;;;;14.30;2.30;;;21.20;99.90;;;;;;5022465;28;20210;-75
2022/08/01 13:52:32;;;;;;;7.88;1.70;;;21.20;99.90;;;;;;5022000;28;20203;-75
2022/08/01 13:55:16;;;;;;;6.97;1.38;;;21.30;99.90;;;;;;5021651;28;20199;-75
2022/08/01 13:58:02;;;;;;;7.15;1.65;;;21.30;99.90;;;;;;5020892;28;21578;-76
2022/08/01 14:00:46;;;;;;;8.35;1.30;;;21.40;99.90;;;;;;5022456;28;20195;-76
2022/08/01 14:03:30;;;;;;;8.48;1.52;;;21.30;99.90;;;;;;5019387;28;20246;-75
2022/08/01 14:06:18;;;;;;;9.93;2.08;;;21.40;99.90;;;;;;5021876;28;20186;-76
2022/08/01 14:09:04;;;;;;;4.78;1.23;;;21.40;99.90;;;;;;5017004;28;20373;-75
2022/08/01 14:11:49;;;;;;;6.50;1.67;;;21.40;99.90;;;;;;5022462;28;20191;-76
2022/08/01 14:14:33;;;;;;;6.30;1.70;;;21.40;99.90;;;;;;5019983;28;20222;-76
2022/08/01 14:17:17;;;;;;;6.38;1.50;;;21.50;99.90;;;;;;5026911;28;20203;-75
2022/08/01 14:20:02;;;;;;;4.78;1.40;;;21.50;99.90;;;;;;5017638;28;20218;-76
2022/08/01 14:22:46;;;;;;;7.55;1.33;;;21.60;99.90;;;;;;5022751;28;20195;-76
2022/08/01 14:25:31;;;;;;;4.90;1.20;;;21.60;99.90;;;;;;5018757;28;20296;-76
2022/08/01 14:28:15;;;;;;;5.75;1.40;;;21.60;99.90;;;;;;5024224;28;20242;-76
2022/08/01 14:30:59;;;;;;;6.38;1.65;;;21.60;99.90;;;;;;5024013;28;20214;-76